Terminal Aerodrome Forecast
Issued by NWS

Home | Current Version | Previous Version | Graphics & Text | Print | Product List | Glossary On
Versions: 1 2 3 4 5 6 7 8 9 10 11 12 13 14 15 16 17 18 19 20 21 22 23 24 25 26 27 28
501
FTUS45 KGGW 171058 AAA
TAFGDV
TAF AMD
KGDV 171058Z 1711/1806 VRB05KT P6SM SCT150
      TEMPO 1711/1712 3SM -TSRA BKN060CB
     FM180000 06011KT P6SM -SHRA SCT090 PROB30 1800/1806 -TSRA
      BKN050CB=

USA.gov is the U.S. government's official web portal to all federal, state and local government web resources and services.